createdAt,value
2023-01-23T00:01:33.651Z,10.38
2023-01-23T00:04:00.763Z,10.98
2023-01-23T00:06:27.743Z,11.10
2023-01-23T00:08:56.183Z,11.43
2023-01-23T00:11:25.479Z,10.85
2023-01-23T00:13:52.646Z,11.18
2023-01-23T00:16:23.754Z,11.63
2023-01-23T00:18:50.723Z,11.48
2023-01-23T00:21:20.798Z,11.48
2023-01-23T00:23:49.860Z,10.75
2023-01-23T00:26:18.933Z,10.77
2023-01-23T00:28:46.472Z,11.23
2023-01-23T00:31:18.849Z,10.50
2023-01-23T00:33:46.317Z,10.98
2023-01-23T00:36:14.751Z,11.15
2023-01-23T00:38:41.855Z,11.38
2023-01-23T00:41:08.271Z,11.02
2023-01-23T00:43:34.665Z,10.88
2023-01-23T00:46:01.138Z,11.10
2023-01-23T00:48:27.778Z,11.38
2023-01-23T00:50:54.458Z,11.18
2023-01-23T00:53:21.070Z,11.15
2023-01-23T00:55:47.697Z,11.13
2023-01-23T00:58:14.147Z,10.70
2023-01-23T01:00:40.894Z,11.75
2023-01-23T01:03:07.566Z,10.65
2023-01-23T01:05:34.185Z,11.13
2023-01-23T01:08:01.090Z,10.75
2023-01-23T01:10:29.430Z,11.05
2023-01-23T01:12:57.331Z,14.55
2023-01-23T01:15:23.833Z,14.30
2023-01-23T01:17:50.263Z,11.30
2023-01-23T01:20:16.743Z,11.20
2023-01-23T01:22:43.381Z,11.15
2023-01-23T01:25:09.923Z,11.27
2023-01-23T01:27:36.290Z,14.02
2023-01-23T01:30:03.407Z,12.13
2023-01-23T01:32:29.794Z,10.68
2023-01-23T01:34:56.156Z,11.63
2023-01-23T01:37:25.108Z,11.60
2023-01-23T01:39:51.582Z,10.55
2023-01-23T01:42:18.167Z,11.40
2023-01-23T01:44:56.868Z,11.25
2023-01-23T01:47:23.516Z,11.30
2023-01-23T01:49:52.874Z,10.77
2023-01-23T01:52:21.964Z,11.25
2023-01-23T01:55:01.468Z,10.32
2023-01-23T01:57:35.730Z,10.75
2023-01-23T02:00:05.836Z,11.32
2023-01-23T02:02:47.729Z,10.80
2023-01-23T02:05:18.956Z,10.88
2023-01-23T02:08:11.024Z,11.15
2023-01-23T02:10:37.426Z,11.10
2023-01-23T02:13:18.342Z,10.82
2023-01-23T02:15:45.430Z,10.30
2023-01-23T02:18:11.993Z,10.90
2023-01-23T02:20:38.733Z,11.10
2023-01-23T02:23:14.370Z,10.57
2023-01-23T02:25:53.355Z,10.15
2023-01-23T02:28:19.788Z,11.07
2023-01-23T02:30:47.087Z,10.68
2023-01-23T02:33:19.911Z,11.43
2023-01-23T02:35:46.553Z,11.40
2023-01-23T02:38:12.898Z,10.75
2023-01-23T02:40:41.968Z,10.98
2023-01-23T02:43:15.748Z,11.05
2023-01-23T02:45:42.262Z,11.18
2023-01-23T02:48:08.859Z,10.70
2023-01-23T02:50:35.375Z,11.38
2023-01-23T02:53:02.019Z,10.98
2023-01-23T02:55:32.986Z,10.65
2023-01-23T02:58:19.218Z,10.55
2023-01-23T03:00:46.907Z,10.75
2023-01-23T03:03:14.033Z,10.65
2023-01-23T03:05:40.412Z,10.77
2023-01-23T03:08:06.775Z,11.48
2023-01-23T03:10:34.684Z,10.60
2023-01-23T03:13:07.368Z,10.68
2023-01-23T03:15:35.290Z,10.25
2023-01-23T03:18:01.744Z,11.15
2023-01-23T03:20:29.266Z,14.80
2023-01-23T03:22:56.267Z,10.68
2023-01-23T03:25:22.931Z,10.43
2023-01-23T03:27:49.452Z,10.75
2023-01-23T03:30:17.033Z,10.10
2023-01-23T03:32:45.068Z,9.88
2023-01-23T03:35:16.795Z,10.80
2023-01-23T03:37:44.245Z,9.73
2023-01-23T03:40:43.318Z,10.43
2023-01-23T03:43:10.781Z,10.43
2023-01-23T03:45:37.252Z,10.30
2023-01-23T03:48:03.901Z,10.07
2023-01-23T03:50:30.356Z,10.75
2023-01-23T03:52:56.910Z,11.27
2023-01-23T03:55:23.272Z,9.95
2023-01-23T03:57:49.766Z,10.48
2023-01-23T04:00:18.092Z,10.70
2023-01-23T04:02:44.801Z,10.57
2023-01-23T04:05:11.206Z,11.05
2023-01-23T04:07:37.637Z,10.25
2023-01-23T04:10:04.326Z,10.88
2023-01-23T04:12:30.698Z,10.93
2023-01-23T04:14:57.163Z,10.07
2023-01-23T04:17:23.520Z,10.77
2023-01-23T04:19:49.890Z,11.05
2023-01-23T04:22:16.289Z,9.63
2023-01-23T04:24:42.799Z,10.77
2023-01-23T04:27:10.177Z,10.48
2023-01-23T04:29:36.564Z,10.93
2023-01-23T04:32:03.116Z,10.52
2023-01-23T04:34:29.481Z,10.73
2023-01-23T04:36:56.287Z,10.65
2023-01-23T04:39:22.652Z,10.13
2023-01-23T04:41:49.086Z,10.75
2023-01-23T04:44:21.402Z,10.25
2023-01-23T04:46:49.890Z,10.52
2023-01-23T04:49:18.578Z,10.93
2023-01-23T04:51:47.965Z,10.57
2023-01-23T04:54:14.866Z,10.85
2023-01-23T04:56:41.285Z,10.27
2023-01-23T04:59:07.670Z,10.70
2023-01-23T05:01:34.505Z,10.60
2023-01-23T05:04:01.139Z,11.07
2023-01-23T05:06:27.590Z,11.05
2023-01-23T05:08:53.940Z,10.50
2023-01-23T05:11:20.401Z,11.38
2023-01-23T05:13:46.777Z,10.65
2023-01-23T05:16:13.426Z,11.02
2023-01-23T05:18:40.241Z,10.75
2023-01-23T05:21:06.997Z,10.02
2023-01-23T05:23:33.735Z,10.82
2023-01-23T05:26:00.484Z,11.38
2023-01-23T05:28:27.007Z,10.88
2023-01-23T05:30:53.646Z,10.25
2023-01-23T05:33:20.104Z,11.63
2023-01-23T05:35:46.474Z,10.73
2023-01-23T05:38:13.780Z,10.45
2023-01-23T05:40:40.170Z,11.00
2023-01-23T05:43:06.957Z,10.98
2023-01-23T05:45:34.712Z,11.70
2023-01-23T05:48:01.134Z,11.27
2023-01-23T05:50:27.512Z,10.95
2023-01-23T05:52:53.944Z,11.65
2023-01-23T05:55:20.331Z,11.48
2023-01-23T05:57:46.893Z,11.38
2023-01-23T06:00:14.363Z,11.85
2023-01-23T06:02:41.168Z,11.13
2023-01-23T06:05:10.247Z,11.18
2023-01-23T06:07:37.671Z,12.32
2023-01-23T06:10:05.221Z,11.07
2023-01-23T06:12:31.840Z,11.00
2023-01-23T06:14:58.342Z,11.00
2023-01-23T06:17:24.784Z,11.63
2023-01-23T06:19:51.145Z,11.13
2023-01-23T06:22:17.534Z,11.00
2023-01-23T06:24:43.956Z,10.93
2023-01-23T06:27:10.830Z,11.13
2023-01-23T06:29:37.847Z,11.55
2023-01-23T06:32:04.659Z,11.60
2023-01-23T06:34:31.088Z,11.52
2023-01-23T06:36:57.539Z,11.82
2023-01-23T06:39:24.047Z,12.30
2023-01-23T06:41:50.706Z,12.52
2023-01-23T06:44:17.401Z,14.02
2023-01-23T06:46:43.973Z,13.02
2023-01-23T06:49:10.509Z,15.25
2023-01-23T06:51:36.951Z,13.63
2023-01-23T06:54:03.429Z,13.80
2023-01-23T06:56:30.057Z,12.98
2023-01-23T06:58:56.444Z,12.93
2023-01-23T07:01:22.893Z,12.80
2023-01-23T07:03:49.548Z,12.63
2023-01-23T07:06:16.437Z,12.32
2023-01-23T07:08:42.849Z,12.93
2023-01-23T07:11:10.305Z,12.95
2023-01-23T07:13:36.875Z,13.32
2023-01-23T07:16:03.592Z,13.70
2023-01-23T07:18:30.295Z,13.25
2023-01-23T07:20:56.862Z,13.65
2023-01-23T07:23:23.699Z,13.13
2023-01-23T07:25:50.547Z,13.48
2023-01-23T07:28:17.081Z,14.77
2023-01-23T07:30:43.649Z,13.40
2023-01-23T07:33:12.158Z,13.15
2023-01-23T07:35:40.155Z,14.60
2023-01-23T07:38:06.620Z,14.18
2023-01-23T07:40:32.999Z,13.75
2023-01-23T07:42:59.553Z,14.88
2023-01-23T07:45:26.071Z,14.48
2023-01-23T07:47:54.132Z,13.88
2023-01-23T07:50:20.869Z,14.23
2023-01-23T07:52:47.453Z,14.52
2023-01-23T07:55:14.346Z,13.80
2023-01-23T07:57:40.779Z,14.65
2023-01-23T08:00:08.008Z,46.00
2023-01-23T08:02:34.586Z,36.63
2023-01-23T08:05:00.962Z,19.88
2023-01-23T08:07:27.439Z,14.40
2023-01-23T08:09:53.878Z,13.63
2023-01-23T08:12:20.312Z,14.35
2023-01-23T08:14:47.515Z,13.75
2023-01-23T08:17:14.560Z,13.63
2023-01-23T08:19:40.911Z,13.75
2023-01-23T08:22:07.316Z,15.27
2023-01-23T08:24:33.681Z,21.20
2023-01-23T08:27:00.107Z,21.50
2023-01-23T08:29:26.723Z,13.20
2023-01-23T08:31:55.005Z,12.65
2023-01-23T08:34:21.937Z,13.15
2023-01-23T08:36:48.395Z,12.55
2023-01-23T08:39:16.723Z,13.82
2023-01-23T08:41:43.151Z,13.13
2023-01-23T08:44:09.663Z,12.02
2023-01-23T08:46:36.083Z,12.15
2023-01-23T08:49:04.045Z,11.88
2023-01-23T08:51:30.880Z,11.40
2023-01-23T08:53:57.646Z,12.35
2023-01-23T08:56:26.580Z,12.75
2023-01-23T08:58:53.335Z,12.00
2023-01-23T09:01:25.054Z,12.23
2023-01-23T09:03:52.160Z,11.88
2023-01-23T09:06:21.137Z,13.23
2023-01-23T09:08:48.412Z,13.02
2023-01-23T09:11:15.445Z,18.23
2023-01-23T09:13:41.991Z,13.43
2023-01-23T09:16:08.887Z,13.27
2023-01-23T09:18:35.933Z,14.25
2023-01-23T09:21:14.346Z,14.25
2023-01-23T09:23:41.321Z,14.18
2023-01-23T09:26:10.872Z,12.68
2023-01-23T09:28:38.780Z,13.93
2023-01-23T09:31:07.348Z,14.55
2023-01-23T09:33:34.966Z,14.35
2023-01-23T09:36:02.104Z,13.25
2023-01-23T09:38:28.683Z,13.00
2023-01-23T09:40:58.063Z,13.75
2023-01-23T09:43:34.367Z,13.38
2023-01-23T09:46:11.929Z,14.55
2023-01-23T09:48:54.908Z,12.93
2023-01-23T09:51:43.296Z,13.07
2023-01-23T09:54:31.437Z,14.05
2023-01-23T09:57:01.301Z,13.55
2023-01-23T10:02:01.701Z,12.00
2023-01-23T10:04:28.338Z,12.63
2023-01-23T10:07:19.381Z,11.82
2023-01-23T10:10:27.645Z,12.98
2023-01-23T10:13:19.504Z,11.73
2023-01-23T10:16:18.427Z,12.80
2023-01-23T10:18:58.427Z,12.80
2023-01-23T10:21:39.303Z,13.23
2023-01-23T10:24:40.885Z,12.63
2023-01-23T10:27:23.494Z,13.23
2023-01-23T10:29:59.505Z,12.02
2023-01-23T10:32:28.947Z,12.70
2023-01-23T10:35:25.068Z,16.30
2023-01-23T10:37:55.221Z,13.77
2023-01-23T10:40:43.051Z,13.52
2023-01-23T10:43:18.047Z,13.73
2023-01-23T10:45:46.380Z,13.50
2023-01-23T10:48:35.074Z,13.38
2023-01-23T10:51:01.917Z,13.25
2023-01-23T10:53:28.301Z,13.10
2023-01-23T10:55:58.968Z,11.93
2023-01-23T10:58:33.720Z,13.68
2023-01-23T11:01:00.942Z,12.57
2023-01-23T11:03:33.003Z,13.55
2023-01-23T11:06:16.421Z,13.48
2023-01-23T11:09:04.638Z,13.02
2023-01-23T11:11:32.665Z,13.13
2023-01-23T11:14:14.216Z,13.52
2023-01-23T11:16:40.770Z,13.07
2023-01-23T11:19:07.085Z,13.23
2023-01-23T11:21:36.602Z,13.90
2023-01-23T11:24:39.924Z,12.38
2023-01-23T11:27:20.227Z,12.70
2023-01-23T11:30:08.638Z,12.65
2023-01-23T11:33:29.165Z,13.23
2023-01-23T11:36:02.402Z,12.95
2023-01-23T11:38:44.904Z,12.77
2023-01-23T11:41:18.143Z,12.57
2023-01-23T11:43:44.599Z,12.63
2023-01-23T11:46:34.584Z,13.18
2023-01-23T11:49:42.885Z,14.10
2023-01-23T11:52:39.741Z,13.55
2023-01-23T11:55:30.482Z,13.73
2023-01-23T11:58:02.846Z,12.95
2023-01-23T12:00:37.099Z,13.35
2023-01-23T12:03:41.284Z,13.63
2023-01-23T12:09:17.762Z,13.27
2023-01-23T12:12:02.637Z,13.32
2023-01-23T12:15:10.608Z,12.43
2023-01-23T12:17:59.102Z,12.60
2023-01-23T12:21:03.596Z,12.25
2023-01-23T12:23:41.858Z,12.95
2023-01-23T12:26:19.840Z,14.07
2023-01-23T12:28:52.036Z,14.73
2023-01-23T12:31:47.652Z,13.05
2023-01-23T12:34:54.455Z,13.85
2023-01-23T12:37:43.228Z,15.73
2023-01-23T12:40:22.781Z,15.32
2023-01-23T12:43:08.224Z,12.80
2023-01-23T12:45:40.144Z,12.98
2023-01-23T12:48:17.931Z,13.77
2023-01-23T12:50:56.432Z,14.60
2023-01-23T12:53:23.523Z,14.00
2023-01-23T12:55:56.030Z,14.13
2023-01-23T12:58:26.945Z,13.77
2023-01-23T13:01:03.744Z,15.02
2023-01-23T13:03:44.768Z,14.23
2023-01-23T13:06:36.005Z,14.32
2023-01-23T13:09:47.013Z,15.40
2023-01-23T13:12:23.364Z,14.30
2023-01-23T13:15:14.217Z,15.13
2023-01-23T13:18:00.695Z,14.43
2023-01-23T13:21:14.880Z,14.48
2023-01-23T13:23:41.554Z,14.38
2023-01-23T13:26:25.051Z,14.95
2023-01-23T13:29:03.867Z,13.93
2023-01-23T13:31:46.894Z,15.60
2023-01-23T13:34:16.536Z,15.55
2023-01-23T13:36:45.084Z,15.80
2023-01-23T13:39:17.280Z,15.38
2023-01-23T13:41:44.933Z,14.60
2023-01-23T13:44:22.956Z,14.68
2023-01-23T14:21:52.243Z,17.92
2023-01-23T14:24:24.306Z,16.67
2023-01-23T14:26:53.547Z,17.83
2023-01-23T14:29:24.943Z,17.70
2023-01-23T14:31:51.834Z,17.55
2023-01-23T14:34:21.152Z,16.27
2023-01-23T14:36:51.897Z,18.27
2023-01-23T14:39:22.232Z,17.73
2023-01-23T14:41:50.405Z,18.38
2023-01-23T14:44:30.395Z,19.20
2023-01-23T14:46:59.516Z,19.00
2023-01-23T14:49:35.891Z,19.10
2023-01-23T14:52:04.944Z,19.20
2023-01-23T14:54:33.796Z,19.10
2023-01-23T14:57:04.629Z,20.25
2023-01-23T14:59:38.211Z,18.25
2023-01-23T15:02:26.738Z,18.60
2023-01-23T15:07:55.935Z,17.30
2023-01-23T15:10:42.517Z,17.27
2023-01-23T15:13:19.805Z,18.30
2023-01-23T15:15:59.772Z,17.15
2023-01-23T15:18:28.679Z,17.05
2023-01-23T15:20:57.504Z,18.75
2023-01-23T15:23:33.469Z,17.55
2023-01-23T15:26:22.559Z,17.15
2023-01-23T15:28:55.140Z,19.05
2023-01-23T15:31:41.132Z,17.25
2023-01-23T15:34:25.762Z,18.17
2023-01-23T15:36:56.660Z,18.58
2023-01-23T15:39:29.831Z,18.00
2023-01-23T15:41:59.506Z,18.65
2023-01-23T15:44:29.088Z,18.42
2023-01-23T15:46:56.577Z,17.80
2023-01-23T15:49:26.211Z,17.92
2023-01-23T15:51:56.390Z,17.98
2023-01-23T15:57:07.478Z,18.10
2023-01-23T15:59:35.255Z,18.15
2023-01-23T16:02:01.917Z,18.52
2023-01-23T16:04:28.613Z,19.02
2023-01-23T16:06:55.129Z,17.70
2023-01-23T16:09:35.809Z,20.40
2023-01-23T16:12:02.934Z,20.08
2023-01-23T16:14:29.393Z,17.60
2023-01-23T16:16:58.293Z,17.00
2023-01-23T16:19:31.193Z,17.10
2023-01-23T16:22:04.790Z,17.65
2023-01-23T16:24:37.377Z,18.77
2023-01-23T16:27:04.037Z,19.90
2023-01-23T16:29:32.395Z,18.88
2023-01-23T16:32:01.175Z,18.38
2023-01-23T16:34:27.927Z,16.90
2023-01-23T16:36:57.781Z,16.98
2023-01-23T16:39:27.082Z,16.33
2023-01-23T16:41:56.470Z,19.05
2023-01-23T16:44:26.219Z,19.38
2023-01-23T16:46:53.535Z,16.33
2023-01-23T16:49:20.660Z,18.35
2023-01-23T16:52:01.520Z,17.67
2023-01-23T16:54:28.075Z,17.55
2023-01-23T16:56:56.990Z,17.63
2023-01-23T16:59:43.698Z,17.95
2023-01-23T17:02:31.276Z,17.45
2023-01-23T17:04:57.653Z,19.10
2023-01-23T17:07:24.063Z,19.15
2023-01-23T17:09:51.640Z,17.75
2023-01-23T17:12:22.128Z,18.02
2023-01-23T17:14:49.848Z,17.42
2023-01-23T17:17:24.700Z,17.83
2023-01-23T17:19:51.176Z,16.50
2023-01-23T17:22:21.354Z,19.13
2023-01-23T17:24:47.881Z,18.23
2023-01-23T17:27:14.268Z,17.67
2023-01-23T17:29:40.647Z,18.02
2023-01-23T17:32:07.266Z,17.05
2023-01-23T17:34:48.605Z,17.77
2023-01-23T17:37:20.500Z,16.80
2023-01-23T17:39:46.884Z,15.70
2023-01-23T17:42:16.381Z,18.00
2023-01-23T17:44:42.798Z,17.40
2023-01-23T17:47:12.875Z,18.15
2023-01-23T17:52:06.548Z,15.82
2023-01-23T17:54:33.071Z,15.15
2023-01-23T17:56:59.536Z,16.83
2023-01-23T17:59:26.111Z,16.77
2023-01-23T18:01:52.607Z,17.40
2023-01-23T18:04:21.713Z,17.75
2023-01-23T18:06:48.989Z,16.80
2023-01-23T18:09:16.096Z,16.92
2023-01-23T18:11:52.045Z,16.40
2023-01-23T18:14:48.049Z,16.65
2023-01-23T18:17:28.284Z,17.05
2023-01-23T18:19:54.965Z,17.38
2023-01-23T18:22:21.777Z,16.63
2023-01-23T18:24:48.651Z,22.40
2023-01-23T18:27:24.907Z,24.05
2023-01-23T18:29:57.587Z,15.27
2023-01-23T18:32:26.932Z,17.20
2023-01-23T18:35:01.623Z,17.55
2023-01-23T18:37:37.214Z,16.02
2023-01-23T18:40:12.907Z,16.95
2023-01-23T18:43:08.551Z,15.73
2023-01-23T18:45:35.197Z,16.88
2023-01-23T18:48:01.926Z,17.30
2023-01-23T18:50:28.616Z,16.33
2023-01-23T18:53:27.604Z,18.08
2023-01-23T18:56:14.387Z,16.05
2023-01-23T18:59:11.184Z,17.23
2023-01-23T19:02:12.792Z,16.90
2023-01-23T19:04:52.025Z,16.08
2023-01-23T19:07:19.341Z,16.60
2023-01-23T19:09:48.255Z,16.88
2023-01-23T19:12:51.381Z,16.42
2023-01-23T19:15:41.505Z,16.73
2023-01-23T19:18:16.851Z,16.50
2023-01-23T19:20:50.145Z,17.58
2023-01-23T19:23:47.084Z,16.52
2023-01-23T19:26:14.992Z,16.65
2023-01-23T19:28:41.578Z,16.65
2023-01-23T19:31:19.849Z,17.10
2023-01-23T19:33:46.469Z,17.25
2023-01-23T19:36:12.921Z,17.23
2023-01-23T19:38:39.622Z,17.63
2023-01-23T19:41:06.603Z,17.40
2023-01-23T19:43:32.951Z,16.75
2023-01-23T19:45:59.856Z,16.92
2023-01-23T19:48:26.244Z,17.10
2023-01-23T19:50:52.645Z,17.52
2023-01-23T19:53:19.352Z,17.60
2023-01-23T19:55:45.781Z,17.08
2023-01-23T19:58:12.179Z,17.15
2023-01-23T20:00:38.662Z,17.17
2023-01-23T20:03:05.151Z,17.10
2023-01-23T20:05:32.162Z,16.88
2023-01-23T20:07:58.726Z,17.08
2023-01-23T20:10:25.142Z,18.30
2023-01-23T20:12:52.173Z,17.92
2023-01-23T20:15:21.948Z,16.42
2023-01-23T20:17:49.060Z,17.23
2023-01-23T20:20:16.124Z,18.77
2023-01-23T20:22:43.915Z,18.88
2023-01-23T20:25:12.940Z,19.63
2023-01-23T20:27:40.062Z,17.90
2023-01-23T20:30:10.952Z,18.70
2023-01-23T20:32:37.987Z,18.80
2023-01-23T20:35:04.769Z,18.10
2023-01-23T20:37:31.205Z,18.55
2023-01-23T20:39:57.762Z,18.85
2023-01-23T20:42:24.271Z,19.38
2023-01-23T20:44:50.674Z,18.35
2023-01-23T20:47:17.178Z,18.63
2023-01-23T20:49:43.562Z,18.13
2023-01-23T20:52:28.818Z,18.30
2023-01-23T20:54:55.284Z,18.25
2023-01-23T20:57:21.659Z,18.52
2023-01-23T20:59:50.239Z,18.52
2023-01-23T21:02:26.966Z,18.75
2023-01-23T21:04:53.398Z,19.13
2023-01-23T21:07:23.033Z,18.38
2023-01-23T21:09:49.564Z,19.60
2023-01-23T21:12:16.008Z,20.05
2023-01-23T21:14:42.470Z,18.02
2023-01-23T21:17:11.719Z,19.85
2023-01-23T21:19:39.364Z,18.58
2023-01-23T21:22:07.063Z,19.73
2023-01-23T21:24:34.743Z,19.67
2023-01-23T21:27:02.678Z,19.60
2023-01-23T21:29:29.989Z,18.95
2023-01-23T21:31:57.628Z,19.67
2023-01-23T21:34:25.520Z,19.85
2023-01-23T21:36:52.693Z,19.10
2023-01-23T21:39:19.668Z,17.92
2023-01-23T21:41:46.404Z,19.08
2023-01-23T21:44:13.071Z,18.27
2023-01-23T21:46:39.544Z,21.13
2023-01-23T21:49:06.059Z,19.98
2023-01-23T21:51:33.851Z,19.25
2023-01-23T21:54:00.348Z,20.00
2023-01-23T21:56:26.887Z,20.38
2023-01-23T21:58:53.305Z,20.15
2023-01-23T22:01:39.359Z,19.45
2023-01-23T22:04:09.159Z,18.65
2023-01-23T22:06:36.856Z,20.42
2023-01-23T22:09:04.282Z,19.05
2023-01-23T22:11:30.877Z,19.35
2023-01-23T22:13:57.809Z,19.70
2023-01-23T22:16:35.963Z,19.58
2023-01-23T22:19:15.862Z,20.35
2023-01-23T22:21:43.625Z,17.85
2023-01-23T22:24:10.057Z,18.15
2023-01-23T22:26:37.068Z,19.27
2023-01-23T22:29:03.512Z,20.23
2023-01-23T22:31:29.958Z,19.23
2023-01-23T22:33:56.488Z,20.60
2023-01-23T22:36:23.093Z,21.10
2023-01-23T22:38:55.513Z,20.27
2023-01-23T22:41:22.881Z,20.58
2023-01-23T22:44:00.795Z,19.58
2023-01-23T22:46:28.664Z,19.33
2023-01-23T22:48:55.319Z,20.35
2023-01-23T22:51:25.131Z,19.98
2023-01-23T22:53:52.413Z,19.60
2023-01-23T22:56:19.439Z,18.38
2023-01-23T22:58:47.021Z,19.55
2023-01-23T23:01:13.511Z,19.88
2023-01-23T23:03:40.234Z,21.35
2023-01-23T23:06:08.984Z,20.17
2023-01-23T23:08:35.921Z,20.27
2023-01-23T23:11:05.488Z,20.67
2023-01-23T23:13:34.393Z,20.13
2023-01-23T23:16:11.356Z,19.90
2023-01-23T23:18:39.290Z,20.92
2023-01-23T23:21:08.827Z,22.45
2023-01-23T23:23:35.833Z,20.65
2023-01-23T23:26:04.757Z,20.33
2023-01-23T23:28:31.869Z,21.10
2023-01-23T23:30:58.332Z,20.00
2023-01-23T23:33:25.635Z,20.05
2023-01-23T23:35:52.480Z,20.38
2023-01-23T23:38:19.514Z,21.10
2023-01-23T23:41:17.658Z,21.00
2023-01-23T23:43:44.622Z,21.42
2023-01-23T23:46:12.928Z,21.08
2023-01-23T23:48:39.820Z,22.05
2023-01-23T23:51:08.817Z,22.08
2023-01-23T23:53:36.287Z,22.23
2023-01-23T23:56:03.381Z,21.42
2023-01-23T23:58:29.993Z,22.08
